createdAt,value
2022-10-21T00:00:56.244Z,9.97
2022-10-21T00:05:05.448Z,10.90
2022-10-21T00:09:33.354Z,11.20
2022-10-21T00:13:54.385Z,9.40
2022-10-21T00:18:03.030Z,11.70
2022-10-21T00:22:30.918Z,12.13
2022-10-21T00:26:39.487Z,10.67
2022-10-21T00:30:48.055Z,12.57
2022-10-21T00:34:56.658Z,11.93
2022-10-21T00:39:05.310Z,12.87
2022-10-21T00:43:14.224Z,11.90
2022-10-21T00:47:23.546Z,10.00
2022-10-21T00:51:32.556Z,10.10
2022-10-21T00:56:01.979Z,10.43
2022-10-21T01:00:10.979Z,10.17
2022-10-21T01:04:20.631Z,9.53
2022-10-21T01:08:30.015Z,10.07
2022-10-21T01:12:41.641Z,8.70
2022-10-21T01:16:53.288Z,8.83
2022-10-21T01:21:22.200Z,9.27
2022-10-21T01:25:42.666Z,9.50
2022-10-21T01:30:23.268Z,8.70
2022-10-21T01:34:49.712Z,9.00
2022-10-21T01:39:28.173Z,8.73
2022-10-21T01:43:48.472Z,9.13
2022-10-21T01:48:12.114Z,9.93
2022-10-21T01:52:21.630Z,8.80
2022-10-21T01:56:32.429Z,9.43
2022-10-21T02:00:42.590Z,8.60
2022-10-21T02:04:52.033Z,8.20
2022-10-21T02:09:01.396Z,8.13
2022-10-21T02:13:12.620Z,8.30
2022-10-21T02:17:23.915Z,7.57
2022-10-21T02:21:35.285Z,7.83
2022-10-21T02:25:56.011Z,8.10
2022-10-21T02:30:05.521Z,8.13
2022-10-21T02:34:30.376Z,7.17
2022-10-21T02:38:44.906Z,6.50
2022-10-21T02:42:56.529Z,7.03
2022-10-21T02:47:05.984Z,7.40
2022-10-21T02:51:15.662Z,7.23
2022-10-21T02:55:24.385Z,7.93
2022-10-21T02:59:32.948Z,7.00
2022-10-21T03:03:41.590Z,7.00
2022-10-21T03:07:50.435Z,6.80
2022-10-21T03:11:59.067Z,7.47
2022-10-21T03:16:27.063Z,6.70
2022-10-21T03:20:35.785Z,6.17
2022-10-21T03:24:44.315Z,6.17
2022-10-21T03:28:52.938Z,6.37
2022-10-21T03:33:20.850Z,6.73
2022-10-21T03:37:48.789Z,7.27
2022-10-21T03:41:57.431Z,5.53
2022-10-21T03:46:06.161Z,5.70
2022-10-21T03:50:17.357Z,6.70
2022-10-21T03:54:24.960Z,6.10
2022-10-21T03:58:35.120Z,5.73
2022-10-21T04:03:03.981Z,5.47
2022-10-21T04:07:12.530Z,5.30
2022-10-21T04:11:21.933Z,5.00
2022-10-21T04:15:30.524Z,6.40
2022-10-21T04:19:39.152Z,5.20
2022-10-21T04:23:48.853Z,5.87
2022-10-21T04:27:57.537Z,5.07
2022-10-21T04:32:07.219Z,4.37
2022-10-21T04:36:15.784Z,5.60
2022-10-21T04:40:24.446Z,6.10
2022-10-21T04:44:33.178Z,4.70
2022-10-21T04:48:42.012Z,5.87
2022-10-21T04:52:50.639Z,4.60
2022-10-21T04:56:59.221Z,5.40
2022-10-21T05:01:07.830Z,4.83
2022-10-21T05:05:16.731Z,4.93
2022-10-21T05:09:26.690Z,5.20
2022-10-21T05:13:35.322Z,4.83
2022-10-21T05:17:43.846Z,5.60
2022-10-21T05:21:52.577Z,4.30
2022-10-21T05:26:20.762Z,5.13
2022-10-21T05:30:29.630Z,4.23
2022-10-21T05:34:38.330Z,3.83
2022-10-21T05:38:46.957Z,5.70
2022-10-21T05:42:55.792Z,5.50
2022-10-21T05:47:05.139Z,4.87
2022-10-21T05:51:13.702Z,4.17
2022-10-21T05:55:22.291Z,4.70
2022-10-21T05:59:30.945Z,4.37
2022-10-21T06:03:39.548Z,4.13
2022-10-21T06:07:49.416Z,4.37
2022-10-21T06:11:58.326Z,4.30
2022-10-21T06:16:27.948Z,3.93
2022-10-21T06:20:36.676Z,5.00
2022-10-21T06:24:46.126Z,4.03
2022-10-21T06:28:54.754Z,4.77
2022-10-21T06:33:03.691Z,5.43
2022-10-21T06:37:12.318Z,4.43
2022-10-21T06:41:24.123Z,4.87
2022-10-21T06:45:32.749Z,5.33
2022-10-21T06:49:41.316Z,4.57
2022-10-21T06:53:55.331Z,4.90
2022-10-21T06:58:04.063Z,4.90
2022-10-21T07:02:18.286Z,5.00
2022-10-21T07:06:26.905Z,6.40
2022-10-21T07:10:55.916Z,5.60
2022-10-21T07:15:04.738Z,4.90
2022-10-21T07:19:13.389Z,5.40
2022-10-21T07:23:22.576Z,5.87
2022-10-21T07:27:50.510Z,4.10
2022-10-21T07:31:59.726Z,4.40
2022-10-21T07:36:11.584Z,3.90
2022-10-21T07:40:21.379Z,4.07
2022-10-21T07:44:29.954Z,4.67
2022-10-21T07:48:38.649Z,4.47
2022-10-21T07:52:55.942Z,4.10
2022-10-21T07:56:58.437Z,4.37
2022-10-21T08:01:08.505Z,4.70
2022-10-21T08:05:18.058Z,5.00
2022-10-21T08:09:26.872Z,4.10
2022-10-21T08:13:35.521Z,5.00
2022-10-21T08:17:44.098Z,4.23
2022-10-21T08:21:52.673Z,4.50
2022-10-21T08:26:20.579Z,4.43
2022-10-21T08:30:32.744Z,4.07
2022-10-21T08:34:41.384Z,3.77
2022-10-21T08:38:50.512Z,4.20
2022-10-21T08:43:02.125Z,4.27
2022-10-21T08:47:29.193Z,4.00
2022-10-21T08:51:41.956Z,4.40
2022-10-21T08:55:52.163Z,4.03
2022-10-21T09:00:00.801Z,4.70
2022-10-21T09:04:12.403Z,4.27
2022-10-21T09:08:36.038Z,5.10
2022-10-21T09:13:11.972Z,5.20
2022-10-21T09:17:44.207Z,4.93
2022-10-21T09:22:10.819Z,4.30
2022-10-21T09:26:22.112Z,5.63
2022-10-21T09:30:31.694Z,5.30
2022-10-21T09:35:04.647Z,5.40
2022-10-21T09:39:16.274Z,5.93
2022-10-21T09:43:27.631Z,5.33
2022-10-21T09:47:36.185Z,6.60
2022-10-21T09:51:45.391Z,5.83
2022-10-21T09:55:58.275Z,6.60
2022-10-21T10:00:11.227Z,6.50
2022-10-21T10:04:33.276Z,6.70
2022-10-21T10:08:47.623Z,5.37
2022-10-21T10:13:00.824Z,5.73
2022-10-21T10:17:40.122Z,5.63
2022-10-21T10:21:51.395Z,4.80
2022-10-21T10:26:00.553Z,4.83
2022-10-21T10:30:12.259Z,6.13
2022-10-21T10:34:27.027Z,5.80
2022-10-21T10:38:41.919Z,6.13
2022-10-21T10:42:53.678Z,6.43
2022-10-21T10:47:05.500Z,5.10
2022-10-21T10:51:26.160Z,5.60
2022-10-21T10:55:36.418Z,5.10
2022-10-21T10:59:55.673Z,6.00
2022-10-21T11:04:14.982Z,4.97
2022-10-21T11:08:27.989Z,5.60
2022-10-21T11:12:56.486Z,5.13
2022-10-21T11:17:16.576Z,5.40
2022-10-21T11:21:46.596Z,5.70
2022-10-21T11:25:58.297Z,6.30
2022-10-21T11:30:15.936Z,5.63
2022-10-21T11:34:29.910Z,6.30
2022-10-21T11:38:53.117Z,5.53
2022-10-21T11:43:22.954Z,5.40
2022-10-21T11:47:40.711Z,6.53
2022-10-21T11:52:18.235Z,6.90
2022-10-21T11:56:37.718Z,5.60
2022-10-21T12:00:55.154Z,4.90
2022-10-21T12:05:18.939Z,5.67
2022-10-21T12:09:39.445Z,5.40
2022-10-21T12:13:54.528Z,5.83
2022-10-21T12:18:05.887Z,5.20
2022-10-21T12:22:15.266Z,5.23
2022-10-21T12:26:29.680Z,4.33
2022-10-21T12:30:58.926Z,4.40
2022-10-21T12:35:09.311Z,4.07
2022-10-21T12:39:35.822Z,3.80
2022-10-21T12:43:47.478Z,4.27
2022-10-21T12:47:56.702Z,4.40
2022-10-21T12:52:11.268Z,3.67
2022-10-21T12:56:32.185Z,3.80
2022-10-21T13:00:46.395Z,3.60
2022-10-21T13:04:57.093Z,2.97
2022-10-21T13:09:08.884Z,3.37
2022-10-21T13:13:26.156Z,3.00
2022-10-21T13:17:55.981Z,3.10
2022-10-21T13:22:12.795Z,3.63
2022-10-21T13:26:27.780Z,3.63
2022-10-21T13:30:38.821Z,3.43
2022-10-21T13:34:53.536Z,3.00
2022-10-21T13:39:05.116Z,2.97
2022-10-21T13:43:17.141Z,3.20
2022-10-21T13:47:31.506Z,2.73
2022-10-21T13:51:48.305Z,3.83
2022-10-21T13:56:05.824Z,3.07
2022-10-21T14:00:22.356Z,3.63
2022-10-21T14:04:34.433Z,5.33
2022-10-21T14:08:46.482Z,2.90
2022-10-21T14:12:56.710Z,3.53
2022-10-21T14:17:08.446Z,2.80
2022-10-21T14:21:23.153Z,2.83
2022-10-21T14:25:33.566Z,3.13
2022-10-21T14:29:44.353Z,3.73
2022-10-21T14:33:53.068Z,3.33
2022-10-21T14:38:03.977Z,4.27
2022-10-21T14:42:21.108Z,3.67
2022-10-21T14:46:31.241Z,5.33
2022-10-21T14:50:42.073Z,4.20
2022-10-21T14:54:59.646Z,3.47
2022-10-21T14:59:19.889Z,4.10
2022-10-21T15:03:40.094Z,2.90
2022-10-21T15:07:48.738Z,3.70
2022-10-21T15:11:59.800Z,3.70
2022-10-21T15:16:11.430Z,2.73
2022-10-21T15:20:20.053Z,3.23
2022-10-21T15:24:43.515Z,3.67
2022-10-21T15:28:53.793Z,3.30
2022-10-21T15:33:02.519Z,2.80
2022-10-21T15:37:11.863Z,3.20
2022-10-21T15:41:22.915Z,2.87
2022-10-21T15:45:31.690Z,3.50
2022-10-21T15:49:55.504Z,3.00
2022-10-21T15:54:03.977Z,3.20
2022-10-21T15:58:15.292Z,3.33
2022-10-21T16:02:23.921Z,2.87
2022-10-21T16:06:32.753Z,3.10
2022-10-21T16:10:43.921Z,3.10
2022-10-21T16:14:52.498Z,2.63
2022-10-21T16:19:01.096Z,2.93
2022-10-21T16:23:11.767Z,3.30
2022-10-21T16:27:31.014Z,3.30
2022-10-21T16:31:30.741Z,3.07
2022-10-21T16:35:39.312Z,2.90
2022-10-21T16:39:47.926Z,2.70
2022-10-21T16:43:57.400Z,3.37
2022-10-21T16:48:10.408Z,3.23
2022-10-21T16:52:18.998Z,3.03
2022-10-21T17:00:38.358Z,3.07
2022-10-21T17:04:47.892Z,4.43
2022-10-21T17:08:57.235Z,3.00
2022-10-21T17:13:05.883Z,3.40
2022-10-21T17:17:15.235Z,4.50
2022-10-21T17:21:32.543Z,3.17
2022-10-21T17:25:42.980Z,3.50
2022-10-21T17:29:51.583Z,3.77
2022-10-21T17:34:07.996Z,3.07
2022-10-21T17:38:16.555Z,3.60
2022-10-21T17:42:25.107Z,3.20
2022-10-21T17:46:33.686Z,3.10
2022-10-21T17:50:42.302Z,3.53
2022-10-21T17:54:50.843Z,3.10
2022-10-21T17:59:01.241Z,4.10
2022-10-21T18:03:09.891Z,3.87
2022-10-21T18:07:20.464Z,3.57
2022-10-21T18:15:39.208Z,4.53
2022-10-21T18:19:48.555Z,3.97
2022-10-21T18:23:58.042Z,4.37
2022-10-21T18:28:07.425Z,4.20
2022-10-21T18:32:16.796Z,3.80
2022-10-21T18:36:26.038Z,4.30
2022-10-21T18:40:34.603Z,3.80
2022-10-21T18:44:43.300Z,3.80
2022-10-21T18:48:52.230Z,3.40
2022-10-21T18:53:02.118Z,4.40
2022-10-21T18:57:12.414Z,4.37
2022-10-21T19:01:22.415Z,3.53
2022-10-21T19:05:31.252Z,3.60
2022-10-21T19:09:39.882Z,3.53
2022-10-21T19:13:48.612Z,4.10
2022-10-21T19:17:57.241Z,3.90
2022-10-21T19:22:05.873Z,4.10
2022-10-21T19:26:16.893Z,4.00
2022-10-21T19:30:25.378Z,4.13
2022-10-21T19:34:34.554Z,4.37
2022-10-21T19:38:44.773Z,4.50
2022-10-21T19:42:53.415Z,4.30
2022-10-21T19:47:01.987Z,4.00
2022-10-21T19:51:15.173Z,3.43
2022-10-21T19:55:24.347Z,3.33
2022-10-21T19:59:33.051Z,4.83
2022-10-21T20:03:44.063Z,3.70
2022-10-21T20:07:52.651Z,4.20
2022-10-21T20:12:01.295Z,4.80
2022-10-21T20:16:11.456Z,4.47
2022-10-21T20:20:20.189Z,4.63
2022-10-21T20:24:28.816Z,3.97
2022-10-21T20:28:37.447Z,3.63
2022-10-21T20:33:05.270Z,3.70
2022-10-21T20:37:13.928Z,3.50
2022-10-21T20:41:25.911Z,4.40
2022-10-21T20:45:35.223Z,4.60
2022-10-21T20:49:43.793Z,4.13
2022-10-21T20:53:54.722Z,4.60
2022-10-21T20:58:04.060Z,4.30
2022-10-21T21:02:13.816Z,4.90
2022-10-21T21:06:22.856Z,3.73
2022-10-21T21:10:32.973Z,4.23
2022-10-21T21:14:42.365Z,4.90
2022-10-21T21:18:56.294Z,4.10
2022-10-21T21:23:04.874Z,4.83
2022-10-21T21:27:13.677Z,5.27
2022-10-21T21:31:25.024Z,4.70
2022-10-21T21:35:33.700Z,5.53
2022-10-21T21:39:42.308Z,5.10
2022-10-21T21:43:52.825Z,4.50
2022-10-21T21:48:01.503Z,4.80
2022-10-21T21:52:10.064Z,4.90
2022-10-21T21:56:21.571Z,5.77
2022-10-21T22:00:30.781Z,5.63
2022-10-21T22:04:40.555Z,5.07
2022-10-21T22:08:50.336Z,5.40
2022-10-21T22:12:58.938Z,4.77
2022-10-21T22:17:09.408Z,6.23
2022-10-21T22:21:19.823Z,5.20
2022-10-21T22:25:28.405Z,5.13
2022-10-21T22:29:37.034Z,5.40
2022-10-21T22:33:46.605Z,5.40
2022-10-21T22:37:55.163Z,5.30
2022-10-21T22:42:03.967Z,5.73
2022-10-21T22:46:29.146Z,5.00
2022-10-21T22:50:22.841Z,4.97
2022-10-21T22:54:48.551Z,4.90
2022-10-21T22:58:41.769Z,4.67
2022-10-21T23:02:50.366Z,5.37
2022-10-21T23:06:58.994Z,6.00
2022-10-21T23:11:07.725Z,4.80
2022-10-21T23:15:16.203Z,6.10
2022-10-21T23:19:24.881Z,6.00
2022-10-21T23:23:33.417Z,5.73
2022-10-21T23:27:41.980Z,5.37
2022-10-21T23:31:50.664Z,5.83
2022-10-21T23:35:59.217Z,4.93
2022-10-21T23:40:08.899Z,5.97
2022-10-21T23:44:17.473Z,5.73
2022-10-21T23:48:27.022Z,5.23
2022-10-21T23:52:36.268Z,5.70
2022-10-21T23:56:45.508Z,6.73
